Time;durP1;ratioP1;P1;durP2;ratioP2;P2;SDS_P1;SDS_P2;PMS_P1;PMS_P2;Temp;Humidity;BMP_temperature;BMP_pressure;BME280_temperature;BME280_humidity;BME280_pressure;Samples;Min_cycle;Max_cycle;Signal;HPM_P1;HPM_P2
2021/10/20 00:00:42;;;;;;;4.65;3.10;;;19.90;97.30;;;;;;5073988;28;20028;-76
2021/10/20 00:03:07;;;;;;;3.70;2.92;;;19.90;97.30;;;;;;5056128;28;20485;-76
2021/10/20 00:05:33;;;;;;;3.78;2.90;;;19.90;97.40;;;;;;5073790;28;20056;-76
2021/10/20 00:08:00;;;;;;;4.15;2.97;;;19.90;97.10;;;;;;5073699;28;20115;-76
2021/10/20 00:10:25;;;;;;;5.28;3.17;;;19.80;97.00;;;;;;5073697;28;20025;-76
2021/10/20 00:12:51;;;;;;;3.28;2.88;;;19.90;97.20;;;;;;5073814;28;20044;-76
2021/10/20 00:15:21;;;;;;;4.38;3.15;;;19.80;97.10;;;;;;5073627;28;20021;-76
2021/10/20 00:17:47;;;;;;;3.72;2.75;;;19.80;97.20;;;;;;5073863;28;20029;-76
2021/10/20 00:20:17;;;;;;;3.10;2.65;;;19.90;96.90;;;;;;5073258;28;20501;-76
2021/10/20 00:22:43;;;;;;;5.38;3.45;;;19.90;97.10;;;;;;5055660;28;20864;-76
2021/10/20 00:25:09;;;;;;;4.38;2.28;;;19.80;97.10;;;;;;5074085;28;20090;-76
2021/10/20 00:27:35;;;;;;;3.70;3.05;;;19.80;97.20;;;;;;5073760;28;20024;-76
2021/10/20 00:30:01;;;;;;;3.53;2.75;;;19.80;97.20;;;;;;5073682;28;20062;-76
2021/10/20 00:32:27;;;;;;;6.30;2.92;;;19.80;97.20;;;;;;5073135;28;20028;-76
2021/10/20 00:34:52;;;;;;;3.80;2.85;;;19.80;97.00;;;;;;5073319;28;20103;-76
2021/10/20 00:37:18;;;;;;;4.10;2.78;;;19.80;97.00;;;;;;5073178;28;20480;-76
2021/10/20 00:39:44;;;;;;;5.32;3.40;;;19.80;97.20;;;;;;5073267;28;20447;-76
2021/10/20 00:42:09;;;;;;;3.85;2.58;;;19.80;97.10;;;;;;5071880;28;20097;-76
2021/10/20 00:44:50;;;;;;;3.92;2.78;;;19.80;97.20;;;;;;5073673;28;20477;-76
2021/10/20 00:47:16;;;;;;;3.63;2.80;;;19.80;97.10;;;;;;5072804;28;20025;-76
2021/10/20 00:49:43;;;;;;;4.15;2.97;;;19.70;97.10;;;;;;5072810;28;20423;-77
2021/10/20 00:52:09;;;;;;;4.00;2.58;;;19.80;97.00;;;;;;5073204;28;20016;-77
2021/10/20 00:54:37;;;;;;;3.20;2.55;;;19.80;96.90;;;;;;5073555;28;20047;-77
2021/10/20 00:57:04;;;;;;;3.38;2.83;;;19.80;96.80;;;;;;5073250;28;20158;-77
2021/10/20 00:59:29;;;;;;;3.60;2.70;;;19.70;96.80;;;;;;5072827;28;20013;-77
2021/10/20 01:01:55;;;;;;;4.13;2.83;;;19.70;96.90;;;;;;5071551;28;20037;-77
2021/10/20 01:04:21;;;;;;;3.13;2.83;;;19.70;96.80;;;;;;5072037;28;20493;-77
2021/10/20 01:06:46;;;;;;;3.65;2.70;;;19.70;96.70;;;;;;5072225;28;20096;-77
2021/10/20 01:09:12;;;;;;;3.30;2.80;;;19.70;96.70;;;;;;5072528;28;20449;-77
2021/10/20 01:11:37;;;;;;;3.70;2.72;;;19.70;96.80;;;;;;5073127;28;20028;-77
2021/10/20 01:14:03;;;;;;;4.28;3.00;;;19.70;96.60;;;;;;5072498;28;20115;-76
2021/10/20 01:16:29;;;;;;;6.68;2.90;;;19.70;96.80;;;;;;5072381;28;20037;-77
2021/10/20 01:18:55;;;;;;;5.22;2.70;;;19.70;96.70;;;;;;5072596;28;20023;-77
2021/10/20 01:21:21;;;;;;;4.35;2.92;;;19.70;96.80;;;;;;5072351;28;20086;-76
2021/10/20 01:23:48;;;;;;;3.72;2.70;;;19.70;96.80;;;;;;5072510;28;20021;-77
2021/10/20 01:26:15;;;;;;;4.53;3.20;;;19.60;96.80;;;;;;5072308;28;20119;-77
2021/10/20 01:28:42;;;;;;;4.00;2.75;;;19.70;96.80;;;;;;5072280;28;20075;-77
2021/10/20 01:31:07;;;;;;;4.32;3.40;;;19.70;96.80;;;;;;5072678;28;20103;-76
2021/10/20 01:33:33;;;;;;;4.72;2.80;;;19.60;96.90;;;;;;5072119;28;20142;-77
2021/10/20 01:35:59;;;;;;;3.80;2.80;;;19.60;96.90;;;;;;5072188;28;20107;-77
2021/10/20 01:38:24;;;;;;;4.32;3.03;;;19.60;96.80;;;;;;5072104;28;20039;-76
2021/10/20 01:40:50;;;;;;;5.05;3.33;;;19.60;96.90;;;;;;5071770;28;20032;-76
2021/10/20 01:43:16;;;;;;;3.20;2.58;;;19.70;96.90;;;;;;5053742;28;20043;-77
2021/10/20 01:45:42;;;;;;;3.58;2.72;;;19.60;96.80;;;;;;5071815;28;20435;-77
2021/10/20 01:48:07;;;;;;;4.05;3.22;;;19.60;96.80;;;;;;5072223;28;20028;-77
2021/10/20 01:50:33;;;;;;;6.03;2.83;;;19.60;96.80;;;;;;5053940;28;20021;-76
2021/10/20 01:52:59;;;;;;;3.90;2.60;;;19.60;96.90;;;;;;5071994;28;20028;-77
2021/10/20 01:55:25;;;;;;;3.15;2.53;;;19.60;96.80;;;;;;5071737;28;20056;-77
2021/10/20 01:57:50;;;;;;;3.97;3.00;;;19.60;96.80;;;;;;5071601;28;20441;-77
2021/10/20 02:00:16;;;;;;;3.58;2.67;;;19.60;96.80;;;;;;5071660;28;20020;-77
2021/10/20 02:02:42;;;;;;;3.80;2.88;;;19.60;96.80;;;;;;5071642;28;20071;-77
2021/10/20 02:05:10;;;;;;;4.07;2.50;;;19.60;96.80;;;;;;5072036;28;20028;-77
2021/10/20 02:07:36;;;;;;;3.30;2.70;;;19.60;96.80;;;;;;5071962;28;20035;-77
2021/10/20 02:10:05;;;;;;;3.55;3.10;;;19.60;96.80;;;;;;5071683;28;20021;-77
2021/10/20 02:12:31;;;;;;;6.18;3.00;;;19.60;96.80;;;;;;5071113;28;20427;-77
2021/10/20 02:14:57;;;;;;;4.57;2.92;;;19.60;96.80;;;;;;5071678;28;20027;-77
2021/10/20 02:17:22;;;;;;;3.75;2.80;;;19.60;96.80;;;;;;5071132;28;20027;-77
2021/10/20 02:19:48;;;;;;;5.38;3.10;;;19.60;96.80;;;;;;5071661;28;20380;-77
2021/10/20 02:22:13;;;;;;;4.47;2.92;;;19.60;96.70;;;;;;5071059;28;20044;-77
2021/10/20 02:24:39;;;;;;;4.47;2.85;;;19.50;96.70;;;;;;5053682;28;20056;-77
2021/10/20 02:27:05;;;;;;;3.22;2.72;;;19.50;96.70;;;;;;5053937;28;20685;-77
2021/10/20 02:29:31;;;;;;;4.38;2.80;;;19.60;96.70;;;;;;5070919;28;20066;-77
2021/10/20 02:31:58;;;;;;;4.43;3.05;;;19.60;96.80;;;;;;5071293;28;20029;-77
2021/10/20 02:34:23;;;;;;;3.50;2.85;;;19.60;96.70;;;;;;5070929;28;20384;-77
2021/10/20 02:36:50;;;;;;;4.43;2.70;;;19.50;96.80;;;;;;5071324;28;20036;-77
2021/10/20 02:39:15;;;;;;;3.42;2.85;;;19.50;96.70;;;;;;5052972;28;20025;-77
2021/10/20 02:41:41;;;;;;;5.85;2.85;;;19.50;96.70;;;;;;5071225;28;20055;-77
2021/10/20 02:44:07;;;;;;;3.55;2.42;;;19.50;96.70;;;;;;5071480;28;20028;-77
2021/10/20 02:46:33;;;;;;;5.38;2.92;;;19.50;96.70;;;;;;5070957;28;20029;-77
2021/10/20 02:48:59;;;;;;;3.25;2.78;;;19.50;96.80;;;;;;5071319;28;20024;-77
2021/10/20 02:51:25;;;;;;;3.63;2.45;;;19.50;96.80;;;;;;5070993;28;20447;-77
2021/10/20 02:53:50;;;;;;;4.70;3.40;;;19.50;96.80;;;;;;5071019;28;20059;-77
2021/10/20 02:56:17;;;;;;;5.55;3.10;;;19.50;96.70;;;;;;5070877;28;20024;-77
2021/10/20 02:58:44;;;;;;;3.97;2.72;;;19.50;96.70;;;;;;5071120;28;20112;-77
2021/10/20 03:01:10;;;;;;;3.45;2.97;;;19.50;96.70;;;;;;5070787;28;20020;-77
2021/10/20 03:03:36;;;;;;;4.63;3.03;;;19.50;96.70;;;;;;5071279;28;20078;-77
2021/10/20 03:06:01;;;;;;;3.00;2.25;;;19.50;96.70;;;;;;5070906;28;20089;-77
2021/10/20 03:08:27;;;;;;;3.90;2.60;;;19.50;96.70;;;;;;5070688;28;20112;-77
2021/10/20 03:10:52;;;;;;;4.43;2.88;;;19.50;96.70;;;;;;5070799;28;20025;-77
2021/10/20 03:13:18;;;;;;;3.55;2.78;;;19.50;96.60;;;;;;5070562;28;20033;-77
2021/10/20 03:15:44;;;;;;;5.82;3.25;;;19.50;96.60;;;;;;5070962;28;20025;-76
2021/10/20 03:18:09;;;;;;;3.88;2.65;;;19.50;96.60;;;;;;5052576;28;20029;-76
2021/10/20 03:20:35;;;;;;;4.07;2.95;;;19.50;96.60;;;;;;5071173;28;20032;-76
2021/10/20 03:23:00;;;;;;;3.65;2.78;;;19.50;96.60;;;;;;5070657;28;20040;-77
2021/10/20 03:25:26;;;;;;;4.10;3.20;;;19.50;96.60;;;;;;5070380;28;20020;-76
2021/10/20 03:27:52;;;;;;;4.63;3.05;;;19.50;96.60;;;;;;5070833;28;20060;-77
2021/10/20 03:30:20;;;;;;;4.45;2.45;;;19.40;96.60;;;;;;5074522;28;20111;-77
2021/10/20 03:32:46;;;;;;;3.95;3.25;;;19.40;96.50;;;;;;5074706;28;20020;-77
2021/10/20 03:35:14;;;;;;;3.67;2.95;;;19.40;96.60;;;;;;5074214;28;20021;-77
2021/10/20 03:37:39;;;;;;;3.38;2.92;;;19.40;96.50;;;;;;5056474;28;20032;-76
2021/10/20 03:40:06;;;;;;;4.28;3.22;;;19.40;96.60;;;;;;5074560;28;20028;-77
2021/10/20 03:42:32;;;;;;;3.58;2.63;;;19.40;96.60;;;;;;5074184;28;20039;-76
2021/10/20 03:44:58;;;;;;;3.92;3.05;;;19.40;96.60;;;;;;5074570;28;20099;-77
2021/10/20 03:47:25;;;;;;;4.30;2.50;;;19.40;96.50;;;;;;5074052;28;20540;-77
2021/10/20 03:49:51;;;;;;;3.65;2.80;;;19.40;96.50;;;;;;5074231;28;20489;-77
2021/10/20 03:52:17;;;;;;;4.10;2.47;;;19.40;96.90;;;;;;5073903;28;20028;-77
2021/10/20 03:54:43;;;;;;;3.85;2.90;;;19.40;96.50;;;;;;5074070;28;20021;-77
2021/10/20 03:57:09;;;;;;;3.78;2.92;;;19.40;96.50;;;;;;5074106;28;20108;-77
2021/10/20 03:59:35;;;;;;;3.95;3.05;;;19.40;96.50;;;;;;5074523;28;20104;-77
2021/10/20 04:02:01;;;;;;;2.92;2.60;;;19.40;96.50;;;;;;5074016;28;20037;-77
2021/10/20 04:04:26;;;;;;;5.40;3.00;;;19.40;96.50;;;;;;5073684;28;20017;-77
2021/10/20 04:06:52;;;;;;;4.35;3.33;;;19.40;96.50;;;;;;5073992;28;20032;-77
2021/10/20 04:09:18;;;;;;;5.18;3.33;;;19.40;96.50;;;;;;5055788;28;20033;-77
2021/10/20 04:11:43;;;;;;;3.83;2.60;;;19.40;96.50;;;;;;5073531;28;20039;-77
2021/10/20 04:14:09;;;;;;;4.18;2.90;;;19.40;96.50;;;;;;5073408;28;20039;-77
2021/10/20 04:16:35;;;;;;;3.53;2.88;;;19.40;96.50;;;;;;5074182;28;20503;-77
2021/10/20 04:19:01;;;;;;;3.80;2.70;;;19.30;96.50;;;;;;5073707;28;20100;-77
2021/10/20 04:21:27;;;;;;;6.45;2.67;;;19.40;96.50;;;;;;5073226;28;20115;-77
2021/10/20 04:23:53;;;;;;;4.45;3.25;;;19.30;96.50;;;;;;5073613;28;20063;-77
2021/10/20 04:26:18;;;;;;;4.13;3.20;;;19.40;96.50;;;;;;5073227;28;20031;-77
2021/10/20 04:28:44;;;;;;;3.78;3.08;;;19.40;96.50;;;;;;5073803;28;20024;-77
2021/10/20 04:31:10;;;;;;;3.17;2.80;;;19.40;96.80;;;;;;5073437;28;20056;-77
2021/10/20 04:33:35;;;;;;;5.00;2.90;;;19.30;96.40;;;;;;5073804;28;20032;-77
2021/10/20 04:36:01;;;;;;;3.60;2.70;;;19.40;96.40;;;;;;5073562;28;20020;-77
2021/10/20 04:38:27;;;;;;;3.90;3.08;;;19.30;96.40;;;;;;5073248;28;20032;-77
2021/10/20 04:40:52;;;;;;;3.28;2.72;;;19.40;96.40;;;;;;5071664;28;20055;-77
2021/10/20 04:43:18;;;;;;;5.10;3.22;;;19.30;96.50;;;;;;5072959;28;20075;-77
2021/10/20 04:45:44;;;;;;;3.85;3.15;;;19.30;96.40;;;;;;5073398;28;20480;-77
2021/10/20 04:48:10;;;;;;;5.22;2.80;;;19.30;96.40;;;;;;5072884;28;20025;-76
2021/10/20 04:50:35;;;;;;;4.25;2.72;;;19.30;96.40;;;;;;5054943;28;20067;-76
2021/10/20 04:53:01;;;;;;;4.90;3.15;;;19.30;96.40;;;;;;5073270;28;20052;-76
2021/10/20 04:55:27;;;;;;;3.90;3.28;;;19.30;96.40;;;;;;5072956;28;20024;-76
2021/10/20 04:57:53;;;;;;;4.38;2.95;;;19.30;96.40;;;;;;5073187;28;20381;-77
2021/10/20 05:00:22;;;;;;;3.50;3.00;;;19.30;96.40;;;;;;5072596;28;20609;-77
2021/10/20 05:02:47;;;;;;;4.05;2.88;;;19.30;96.40;;;;;;5072943;28;20029;-77
2021/10/20 05:05:13;;;;;;;5.32;3.10;;;19.30;96.40;;;;;;5072714;28;20021;-77
2021/10/20 05:07:51;;;;;;;4.93;3.15;;;19.30;96.40;;;;;;5072980;28;20086;-77
2021/10/20 05:10:17;;;;;;;4.50;3.28;;;19.30;96.40;;;;;;5072621;28;20396;-77
2021/10/20 05:12:43;;;;;;;5.45;3.20;;;19.30;96.40;;;;;;5072721;28;20020;-78
2021/10/20 05:15:09;;;;;;;4.10;3.20;;;19.30;96.30;;;;;;5072496;28;20028;-78
2021/10/20 05:17:35;;;;;;;4.75;3.10;;;19.30;96.40;;;;;;5072866;28;20048;-78
2021/10/20 05:20:01;;;;;;;3.97;2.70;;;19.30;96.40;;;;;;5072589;28;20492;-78
2021/10/20 05:22:27;;;;;;;3.53;2.53;;;19.30;96.40;;;;;;5071881;28;20044;-77
2021/10/20 05:24:53;;;;;;;4.80;2.67;;;19.30;96.30;;;;;;5072469;28;20017;-77
2021/10/20 05:27:18;;;;;;;4.25;2.92;;;19.30;96.40;;;;;;5072215;28;20032;-77
2021/10/20 05:29:44;;;;;;;4.70;2.90;;;19.30;96.30;;;;;;5054376;28;20499;-78
2021/10/20 05:32:09;;;;;;;4.60;2.80;;;19.30;96.30;;;;;;5072063;28;20040;-77
2021/10/20 05:34:35;;;;;;;3.70;3.05;;;19.30;96.40;;;;;;5072326;28;20040;-77
2021/10/20 05:37:01;;;;;;;4.05;2.88;;;19.30;96.30;;;;;;5072182;28;20174;-77
2021/10/20 05:39:26;;;;;;;3.97;2.83;;;19.30;96.30;;;;;;5071882;28;20029;-77
2021/10/20 05:41:52;;;;;;;4.00;3.03;;;19.30;96.30;;;;;;5054238;28;20059;-78
2021/10/20 05:44:18;;;;;;;4.70;3.25;;;19.30;96.30;;;;;;5072038;28;20024;-78
2021/10/20 05:46:45;;;;;;;3.88;3.17;;;19.30;96.30;;;;;;5071610;28;20078;-78
2021/10/20 06:31:52;;;;;;;;;;;19.10;96.50;;;;;;5089205;28;20209;-80
2021/10/20 06:47:05;;;;;;;7.00;4.28;;;19.10;96.80;;;;;;5065281;28;20443;-83
2021/10/20 06:49:30;;;;;;;7.55;4.55;;;19.10;97.80;;;;;;5064473;28;20029;-79
2021/10/20 06:51:56;;;;;;;7.45;4.78;;;19.10;97.70;;;;;;5065178;27;20033;-80
2021/10/20 06:54:21;;;;;;;10.07;5.50;;;19.10;97.50;;;;;;5063751;27;20090;-83
2021/10/20 06:56:52;;;;;;;5.90;3.90;;;19.10;97.70;;;;;;5045285;28;20040;-87
2021/10/20 06:59:18;;;;;;;6.53;4.13;;;19.10;97.80;;;;;;5045339;28;20059;-85
2021/10/20 07:01:44;;;;;;;12.90;4.50;;;19.20;97.60;;;;;;5044993;28;20078;-80
2021/10/20 07:04:13;;;;;;;6.70;4.57;;;19.20;97.60;;;;;;5045410;28;20022;-86
2021/10/20 07:06:39;;;;;;;6.47;4.40;;;19.20;97.60;;;;;;5044954;28;20408;-85
2021/10/20 07:09:05;;;;;;;8.57;4.22;;;19.20;97.50;;;;;;5044966;27;20028;-86
2021/10/20 07:11:32;;;;;;;6.90;4.10;;;19.20;97.50;;;;;;5044995;28;20483;-86
2021/10/20 07:13:58;;;;;;;7.05;3.85;;;19.20;97.50;;;;;;5044971;27;20059;-86
2021/10/20 07:16:23;;;;;;;5.47;3.85;;;19.20;97.50;;;;;;5045062;27;20064;-85
2021/10/20 07:18:50;;;;;;;4.72;3.70;;;19.20;97.40;;;;;;5062063;28;20028;-84
2021/10/20 07:21:16;;;;;;;5.85;4.18;;;19.20;97.40;;;;;;5065088;28;20407;-84
2021/10/20 07:23:42;;;;;;;5.82;3.72;;;19.20;97.40;;;;;;5065283;28;20059;-84
2021/10/20 07:26:08;;;;;;;8.25;4.18;;;19.20;97.40;;;;;;5064814;27;20021;-82
2021/10/20 07:28:34;;;;;;;9.95;4.22;;;19.20;97.40;;;;;;5064847;28;20025;-83
2021/10/20 07:30:59;;;;;;;5.90;4.18;;;19.20;97.40;;;;;;5062474;28;20028;-82
2021/10/20 07:33:25;;;;;;;5.50;3.50;;;19.20;97.40;;;;;;5044631;28;20029;-81
2021/10/20 07:35:51;;;;;;;4.97;3.83;;;19.20;97.30;;;;;;5044712;27;20029;-82
2021/10/20 07:38:16;;;;;;;6.45;3.95;;;19.20;97.30;;;;;;5044470;28;20029;-82
2021/10/20 07:40:42;;;;;;;5.85;3.63;;;19.20;97.30;;;;;;5044999;27;20574;-81
2021/10/20 07:43:08;;;;;;;6.78;3.92;;;19.30;97.30;;;;;;5043052;28;20046;-83
2021/10/20 07:45:34;;;;;;;7.57;3.90;;;19.20;97.20;;;;;;5044335;27;20116;-82
2021/10/20 07:48:00;;;;;;;4.22;3.55;;;19.20;97.30;;;;;;5029887;28;20121;-81
2021/10/20 07:50:25;;;;;;;4.60;3.80;;;19.20;97.20;;;;;;5031327;28;20053;-82
2021/10/20 07:52:51;;;;;;;6.05;3.75;;;19.20;97.40;;;;;;5031286;28;20025;-82
2021/10/20 07:55:22;;;;;;;5.15;3.88;;;19.30;97.40;;;;;;5030916;28;20385;-82
2021/10/20 07:57:48;;;;;;;7.88;3.90;;;19.20;97.20;;;;;;5030914;28;20030;-82
2021/10/20 08:00:15;;;;;;;4.95;3.30;;;19.20;97.20;;;;;;5031236;28;20072;-82
2021/10/20 08:02:41;;;;;;;4.65;3.60;;;19.20;97.20;;;;;;5042510;28;20070;-83
2021/10/20 08:05:07;;;;;;;4.60;3.50;;;19.30;97.30;;;;;;5051060;28;20485;-82
2021/10/20 08:07:33;;;;;;;4.32;3.42;;;19.20;97.50;;;;;;5040523;28;20037;-80
2021/10/20 08:09:59;;;;;;;6.30;4.10;;;19.30;97.50;;;;;;5030878;28;20038;-81
2021/10/20 08:12:24;;;;;;;4.18;3.45;;;19.30;97.20;;;;;;5030595;28;20044;-80
2021/10/20 08:14:56;;;;;;;5.70;4.20;;;19.30;97.20;;;;;;5030799;28;20064;-80
2021/10/20 08:17:22;;;;;;;5.30;3.97;;;19.30;97.20;;;;;;5030862;28;20025;-81
2021/10/20 08:19:47;;;;;;;6.88;3.45;;;19.30;97.20;;;;;;5032215;28;20025;-78
2021/10/20 08:22:13;;;;;;;4.75;3.35;;;19.30;97.20;;;;;;5050981;28;20503;-80
2021/10/20 08:24:39;;;;;;;8.40;3.75;;;19.30;97.10;;;;;;5050428;28;20028;-81
2021/10/20 08:27:04;;;;;;;4.68;3.85;;;19.30;97.20;;;;;;5050593;28;20025;-81
2021/10/20 08:29:30;;;;;;;5.10;3.65;;;19.30;97.10;;;;;;5050627;28;20028;-79
2021/10/20 08:31:56;;;;;;;6.10;3.50;;;19.30;97.10;;;;;;5039012;28;20026;-79
2021/10/20 08:34:22;;;;;;;4.43;3.40;;;19.30;97.10;;;;;;5030487;28;20096;-81
2021/10/20 08:36:48;;;;;;;4.45;3.17;;;19.40;97.10;;;;;;5034695;28;20033;-80
2021/10/20 08:39:15;;;;;;;5.50;3.85;;;19.30;97.10;;;;;;5050446;28;20025;-81
2021/10/20 08:41:41;;;;;;;6.40;3.90;;;19.40;97.00;;;;;;5050023;28;20411;-82
2021/10/20 08:44:07;;;;;;;6.05;3.72;;;19.40;97.00;;;;;;5050367;28;20025;-81
2021/10/20 08:46:33;;;;;;;6.07;3.75;;;19.40;97.00;;;;;;5050011;28;20040;-82
2021/10/20 08:49:02;;;;;;;4.88;3.45;;;19.40;96.90;;;;;;5037406;28;20029;-82
2021/10/20 08:51:28;;;;;;;4.45;3.70;;;19.40;96.90;;;;;;5030359;28;20094;-84
2021/10/20 08:53:56;;;;;;;3.97;2.92;;;19.40;96.90;;;;;;5028580;28;20036;-82
2021/10/20 08:56:22;;;;;;;4.50;3.53;;;19.40;96.90;;;;;;5029365;28;20033;-80
2021/10/20 08:58:48;;;;;;;6.25;4.05;;;19.40;96.80;;;;;;5029405;28;20022;-80
2021/10/20 09:01:13;;;;;;;5.07;3.70;;;19.40;96.90;;;;;;5032651;28;20037;-81
2021/10/20 09:03:39;;;;;;;5.00;3.70;;;19.50;96.90;;;;;;5030097;28;20082;-80
2021/10/20 09:06:05;;;;;;;4.57;2.90;;;19.40;96.80;;;;;;5030155;28;20030;-81
2021/10/20 09:08:41;;;;;;;6.85;3.80;;;19.50;96.90;;;;;;5030113;28;20026;-81
2021/10/20 09:11:29;;;;;;;5.82;3.88;;;19.50;96.80;;;;;;5040931;28;20056;-80
2021/10/20 09:13:58;;;;;;;4.55;3.90;;;19.50;96.80;;;;;;5029792;28;20021;-82
2021/10/20 09:16:24;;;;;;;4.43;3.30;;;19.50;96.80;;;;;;5045368;28;20036;-82
2021/10/20 09:18:49;;;;;;;5.40;3.63;;;19.50;96.80;;;;;;5050139;28;20105;-82
2021/10/20 09:21:15;;;;;;;3.95;3.40;;;19.50;96.90;;;;;;5049687;28;20116;-81
2021/10/20 09:23:41;;;;;;;5.25;4.03;;;19.50;96.90;;;;;;5049631;28;20068;-80
2021/10/20 09:26:09;;;;;;;7.07;4.10;;;19.50;97.00;;;;;;5049561;28;20068;-80
2021/10/20 09:28:37;;;;;;;5.32;3.88;;;19.50;97.00;;;;;;5033590;28;20024;-80
2021/10/20 09:31:05;;;;;;;5.30;3.78;;;19.50;97.00;;;;;;5032016;28;20534;-78
2021/10/20 09:33:35;;;;;;;5.43;3.70;;;19.50;97.00;;;;;;5049279;28;20025;-80
2021/10/20 09:36:06;;;;;;;4.57;3.75;;;19.50;97.00;;;;;;5049378;28;20072;-78
2021/10/20 09:38:46;;;;;;;4.32;3.42;;;19.50;97.00;;;;;;5049530;28;20039;-78
2021/10/20 09:41:12;;;;;;;4.43;3.38;;;19.50;97.10;;;;;;5049373;28;20029;-78
2021/10/20 09:43:52;;;;;;;5.43;3.75;;;19.50;97.10;;;;;;5049428;28;20495;-78
2021/10/20 09:46:32;;;;;;;5.70;3.83;;;19.50;97.10;;;;;;5049437;28;20036;-78
2021/10/20 09:49:45;;;;;;;6.50;3.97;;;19.50;97.20;;;;;;5047772;28;20404;-78
2021/10/20 09:52:10;;;;;;;5.00;4.18;;;19.50;97.20;;;;;;5007396;28;20018;-78
2021/10/20 09:54:36;;;;;;;4.85;3.75;;;19.50;97.20;;;;;;5007429;28;20079;-79
2021/10/20 09:57:03;;;;;;;4.57;3.72;;;19.50;97.40;;;;;;5029260;28;20036;-78
2021/10/20 09:59:30;;;;;;;7.57;3.95;;;19.50;97.30;;;;;;5048838;28;20025;-79
2021/10/20 10:01:56;;;;;;;4.30;3.60;;;19.50;97.40;;;;;;5049128;28;20054;-79
2021/10/20 10:04:24;;;;;;;4.60;3.60;;;19.50;97.40;;;;;;5049028;28;20025;-79
2021/10/20 10:06:50;;;;;;;6.15;4.03;;;19.50;97.80;;;;;;5049378;28;20025;-79
2021/10/20 10:09:17;;;;;;;6.38;3.80;;;19.50;97.40;;;;;;5048380;28;20025;-79
2021/10/20 10:11:56;;;;;;;5.60;3.80;;;19.50;97.40;;;;;;5030111;28;20116;-79
2021/10/20 10:14:28;;;;;;;5.18;3.80;;;19.50;97.40;;;;;;5029364;28;20132;-79
2021/10/20 10:16:59;;;;;;;4.70;3.55;;;19.50;97.40;;;;;;5029190;28;20025;-79
2021/10/20 10:19:28;;;;;;;4.43;3.25;;;19.50;97.40;;;;;;5028867;28;20403;-79
2021/10/20 10:21:54;;;;;;;4.70;3.88;;;19.50;97.40;;;;;;5034131;28;20024;-79
2021/10/20 10:24:20;;;;;;;4.65;3.72;;;19.50;97.40;;;;;;5049228;28;20025;-79
2021/10/20 10:27:08;;;;;;;5.55;4.05;;;19.50;97.40;;;;;;5045897;28;20368;-80
2021/10/20 10:29:45;;;;;;;5.35;3.72;;;19.50;97.40;;;;;;5048334;28;20453;-79
2021/10/20 10:32:11;;;;;;;4.93;3.65;;;19.50;97.40;;;;;;5048731;28;20103;-79
2021/10/20 10:34:48;;;;;;;6.40;3.85;;;19.50;97.50;;;;;;5048173;28;20147;-79
2021/10/20 10:37:27;;;;;;;5.15;4.28;;;19.50;97.40;;;;;;5048045;28;20048;-78
2021/10/20 10:39:53;;;;;;;5.70;3.05;;;19.50;97.40;;;;;;5047408;28;20081;-79
2021/10/20 10:42:33;;;;;;;6.47;3.65;;;19.50;97.50;;;;;;5047959;28;20025;-79
2021/10/20 10:45:22;;;;;;;4.47;3.88;;;19.50;97.50;;;;;;5047603;28;20032;-79
2021/10/20 10:47:59;;;;;;;5.25;3.67;;;19.50;97.50;;;;;;5047909;28;20563;-79
2021/10/20 10:50:52;;;;;;;5.03;3.78;;;19.50;97.50;;;;;;5048465;28;20108;-79
2021/10/20 10:53:33;;;;;;;5.97;3.85;;;19.50;97.60;;;;;;5047254;28;20020;-79
2021/10/20 10:56:06;;;;;;;4.82;3.70;;;19.50;97.60;;;;;;5047368;28;20040;-79
2021/10/20 10:58:56;;;;;;;3.90;3.45;;;19.50;97.60;;;;;;5049425;28;20025;-79
2021/10/20 11:01:46;;;;;;;5.53;3.83;;;19.50;97.60;;;;;;5039181;28;20145;-78
2021/10/20 11:04:17;;;;;;;4.80;3.53;;;19.50;97.30;;;;;;5058954;28;20025;-79
2021/10/20 11:06:43;;;;;;;6.40;3.45;;;19.50;97.50;;;;;;5052124;28;20048;-83
2021/10/20 11:09:09;;;;;;;4.85;3.88;;;19.50;97.20;;;;;;5048697;28;20049;-85
2021/10/20 11:11:35;;;;;;;6.95;3.85;;;19.60;98.00;;;;;;5046763;28;20029;-79
2021/10/20 11:14:01;;;;;;;6.70;3.17;;;19.50;97.90;;;;;;5047523;28;20025;-83
2021/10/20 11:16:27;;;;;;;4.38;3.47;;;19.60;98.10;;;;;;5048256;28;20072;-82
2021/10/20 11:18:54;;;;;;;5.22;3.00;;;19.60;98.30;;;;;;5048364;28;20587;-84
2021/10/20 11:21:21;;;;;;;5.15;3.03;;;19.60;98.40;;;;;;5048105;28;20032;-82
2021/10/20 11:23:47;;;;;;;3.63;2.90;;;19.70;98.40;;;;;;5051403;28;20503;-83
2021/10/20 11:26:14;;;;;;;4.93;3.00;;;19.70;98.40;;;;;;5050990;28;20108;-83
2021/10/20 11:28:41;;;;;;;4.07;2.80;;;19.80;98.50;;;;;;5048967;28;20021;-82
2021/10/20 11:31:10;;;;;;;3.47;3.00;;;19.80;98.40;;;;;;5050942;28;20384;-83
2021/10/20 11:33:36;;;;;;;3.92;2.70;;;19.90;98.40;;;;;;5050487;28;20045;-83
2021/10/20 11:36:02;;;;;;;4.20;2.90;;;19.90;98.30;;;;;;5050849;28;20076;-80
2021/10/20 11:38:35;;;;;;;4.95;3.03;;;19.90;98.30;;;;;;5050514;28;20049;-78
2021/10/20 11:41:00;;;;;;;4.95;3.00;;;20.00;98.20;;;;;;5050889;28;20018;-82
2021/10/20 11:43:35;;;;;;;5.78;3.10;;;20.00;98.20;;;;;;5050315;28;20445;-81
2021/10/20 11:46:02;;;;;;;3.13;2.58;;;20.10;98.20;;;;;;5050774;28;20025;-84
2021/10/20 11:48:28;;;;;;;4.50;2.85;;;20.10;98.20;;;;;;5050786;28;20033;-84
2021/10/20 11:50:57;;;;;;;3.45;2.75;;;20.10;98.00;;;;;;5049621;28;20089;-82
2021/10/20 11:53:23;;;;;;;3.63;2.75;;;20.10;98.00;;;;;;5050397;28;20125;-81
2021/10/20 11:55:52;;;;;;;4.30;2.60;;;20.20;97.80;;;;;;5050441;28;20433;-85
2021/10/20 11:58:26;;;;;;;3.95;2.60;;;20.30;98.00;;;;;;5049712;28;20397;-84
2021/10/20 12:01:07;;;;;;;4.18;2.72;;;20.30;97.90;;;;;;5050635;28;20033;-84
2021/10/20 12:03:37;;;;;;;4.63;2.72;;;20.40;97.90;;;;;;5050540;28;20037;-85
2021/10/20 12:06:07;;;;;;;3.83;2.47;;;20.40;97.70;;;;;;5050703;28;20071;-84
2021/10/20 12:08:33;;;;;;;4.45;2.40;;;20.50;97.60;;;;;;5030318;28;20438;-86
2021/10/20 12:10:59;;;;;;;3.55;2.40;;;20.50;97.40;;;;;;5045769;28;20036;-86
2021/10/20 12:13:26;;;;;;;4.93;2.90;;;20.50;97.20;;;;;;5049962;28;20468;-86
2021/10/20 12:15:51;;;;;;;4.43;3.13;;;20.60;97.10;;;;;;5050205;28;20365;-86
2021/10/20 12:18:18;;;;;;;4.18;3.17;;;20.60;96.90;;;;;;5050246;28;20037;-85
2021/10/20 12:20:52;;;;;;;5.00;3.30;;;20.60;96.80;;;;;;5050216;28;20060;-86
2021/10/20 12:23:19;;;;;;;4.97;2.77;;;20.60;96.70;;;;;;5050221;28;20029;-83
2021/10/20 12:25:46;;;;;;;8.63;3.25;;;20.60;96.70;;;;;;5050105;28;20021;-84
2021/10/20 12:28:13;;;;;;;5.40;3.22;;;20.60;96.70;;;;;;5049063;28;20033;-85
2021/10/20 12:30:39;;;;;;;4.63;2.60;;;20.60;96.70;;;;;;5049757;28;20032;-85
2021/10/20 12:33:13;;;;;;;3.45;2.58;;;20.60;96.60;;;;;;5049874;28;20029;-85
2021/10/20 12:35:51;;;;;;;4.63;3.30;;;20.50;96.60;;;;;;5049713;28;20322;-85
2021/10/20 12:38:19;;;;;;;4.95;3.20;;;20.60;96.60;;;;;;5049964;28;20109;-86
2021/10/20 12:40:48;;;;;;;5.95;3.03;;;20.60;96.60;;;;;;5049910;28;20500;-86
2021/10/20 12:43:18;;;;;;;4.72;2.85;;;20.50;96.60;;;;;;5049365;28;20518;-85
2021/10/20 12:45:48;;;;;;;4.88;3.30;;;20.60;96.60;;;;;;5048692;28;20099;-85
2021/10/20 12:48:13;;;;;;;5.00;3.28;;;20.50;96.50;;;;;;5049741;28;20492;-86
2021/10/20 12:50:41;;;;;;;4.75;3.00;;;20.50;96.50;;;;;;5049427;28;20017;-85
2021/10/20 12:53:13;;;;;;;6.93;3.00;;;20.50;96.50;;;;;;5049690;28;20037;-84
2021/10/20 12:55:40;;;;;;;3.90;3.20;;;20.60;96.50;;;;;;5049325;28;20124;-85
2021/10/20 12:58:15;;;;;;;5.60;3.20;;;20.50;96.50;;;;;;5048759;28;20037;-85
2021/10/20 13:00:41;;;;;;;3.97;2.87;;;20.50;96.50;;;;;;5049393;28;20370;-86
2021/10/20 13:03:07;;;;;;;4.97;3.45;;;20.50;96.50;;;;;;5049138;28;20032;-86
2021/10/20 13:05:33;;;;;;;7.47;3.60;;;20.50;96.50;;;;;;5049119;28;20028;-85
2021/10/20 13:07:59;;;;;;;5.05;3.40;;;20.50;96.50;;;;;;5049761;28;20025;-85
2021/10/20 13:10:25;;;;;;;3.50;3.20;;;20.50;96.60;;;;;;5048379;28;20021;-85
2021/10/20 13:12:57;;;;;;;5.25;3.08;;;20.50;96.50;;;;;;5047813;28;20506;-84
2021/10/20 13:15:25;;;;;;;6.80;3.03;;;20.50;96.50;;;;;;5048878;28;20032;-86
2021/10/20 13:17:51;;;;;;;6.47;3.75;;;20.50;96.50;;;;;;5049315;28;20100;-84
2021/10/20 13:20:16;;;;;;;5.55;3.00;;;20.50;96.50;;;;;;5049312;28;20100;-84
2021/10/20 13:22:44;;;;;;;5.32;3.60;;;20.50;96.50;;;;;;5049001;28;20520;-85
2021/10/20 13:25:11;;;;;;;7.70;3.75;;;20.50;96.50;;;;;;5049056;28;20025;-85
2021/10/20 13:27:37;;;;;;;5.80;3.40;;;20.50;96.50;;;;;;5047030;28;20444;-87
2021/10/20 13:30:10;;;;;;;4.97;3.30;;;20.50;96.50;;;;;;5047783;28;20021;-85
2021/10/20 13:32:36;;;;;;;6.75;3.28;;;20.50;96.50;;;;;;5091194;27;20016;-85
2021/10/20 13:35:03;;;;;;;7.88;3.58;;;20.40;96.50;;;;;;5087477;27;20021;-80
2021/10/20 13:37:30;;;;;;;6.28;4.20;;;20.50;96.50;;;;;;5048932;28;20029;-84
2021/10/20 13:39:57;;;;;;;6.05;3.42;;;20.50;96.90;;;;;;5048634;28;20021;-83
2021/10/20 13:42:23;;;;;;;4.70;3.40;;;20.40;96.50;;;;;;5047527;28;20070;-85
2021/10/20 13:44:48;;;;;;;3.80;3.10;;;20.40;96.50;;;;;;5047032;28;20048;-83